createdAt,value
2023-03-18T00:00:37.786Z,141.35
2023-03-18T00:56:24.034Z,25.00
2023-03-18T01:00:25.206Z,25.00
2023-03-18T01:04:25.408Z,0.00
2023-03-18T01:08:25.631Z,0.00
2023-03-18T01:12:25.872Z,25.16
2023-03-18T03:16:33.561Z,25.66
2023-03-18T03:20:33.913Z,27.46
2023-03-18T03:24:34.046Z,28.29
2023-03-18T03:28:34.321Z,25.00
2023-03-18T03:32:34.630Z,26.90
2023-03-18T03:36:34.854Z,27.81
2023-03-18T03:40:35.082Z,27.50
2023-03-18T03:44:35.333Z,25.95
2023-03-18T03:48:35.580Z,27.56
2023-03-18T03:52:35.846Z,29.56
2023-03-18T03:56:36.069Z,27.77
2023-03-18T04:00:36.318Z,27.04
2023-03-18T04:04:36.652Z,27.32
2023-03-18T04:08:36.844Z,26.62
2023-03-18T04:12:37.057Z,28.57
2023-03-18T04:16:37.304Z,29.14
2023-03-18T04:20:37.599Z,25.70
2023-03-18T04:24:37.827Z,29.65
2023-03-18T04:28:38.083Z,28.11
2023-03-18T04:32:38.384Z,27.72
2023-03-18T04:36:38.594Z,27.61
2023-03-18T04:40:38.886Z,27.74
2023-03-18T05:44:43.043Z,30.66
2023-03-18T05:48:43.269Z,28.42
2023-03-18T05:52:43.531Z,25.61
2023-03-18T05:56:43.809Z,29.73
2023-03-18T06:00:44.085Z,28.49
2023-03-18T07:00:48.267Z,92.13
2023-03-18T07:04:48.474Z,71.86
2023-03-18T07:08:48.718Z,120.95
2023-03-18T07:12:48.990Z,141.17
2023-03-18T07:16:49.308Z,149.90
2023-03-18T07:20:49.596Z,154.55
2023-03-18T07:24:49.710Z,145.95
2023-03-18T07:28:49.831Z,200.88
2023-03-18T07:32:50.030Z,195.42
2023-03-18T07:36:50.182Z,185.88
2023-03-18T07:40:50.223Z,180.13
2023-03-18T07:44:50.273Z,179.38
2023-03-18T07:48:50.319Z,173.22
2023-03-18T07:52:50.444Z,173.89
2023-03-18T07:56:50.498Z,81.85
2023-03-18T08:00:50.526Z,73.27
2023-03-18T08:04:50.681Z,55.44
2023-03-18T08:08:50.803Z,26.89
2023-03-18T08:12:53.457Z,29.80
2023-03-18T08:16:51.232Z,25.43
2023-03-18T08:20:51.339Z,52.50
2023-03-18T08:24:51.452Z,64.50
2023-03-18T08:28:51.512Z,67.63
2023-03-18T08:32:51.599Z,74.04
2023-03-18T08:36:51.632Z,82.42
2023-03-18T08:40:51.716Z,87.49
2023-03-18T08:44:51.772Z,90.95
2023-03-18T08:48:51.803Z,110.24
2023-03-18T08:52:51.846Z,117.99
2023-03-18T08:56:51.920Z,128.59
2023-03-18T09:00:51.978Z,130.41
2023-03-18T09:04:52.092Z,134.79
2023-03-18T09:20:52.655Z,31.30
2023-03-18T10:16:54.927Z,83.63
2023-03-18T10:20:55.014Z,60.41
2023-03-18T10:24:55.109Z,43.39
2023-03-18T10:28:55.213Z,25.46
2023-03-18T10:36:55.497Z,62.46
2023-03-18T10:40:55.644Z,26.24
2023-03-18T10:44:55.952Z,71.35
2023-03-18T10:48:56.057Z,39.93
2023-03-18T10:52:56.113Z,61.34
2023-03-18T10:56:56.175Z,44.22
2023-03-18T11:00:56.247Z,46.09
2023-03-18T11:04:56.353Z,49.31
2023-03-18T11:08:56.361Z,82.55
2023-03-18T11:12:56.542Z,57.58
2023-03-18T11:16:56.620Z,56.75
2023-03-18T11:20:56.703Z,61.57
2023-03-18T11:24:56.731Z,63.92
2023-03-18T11:28:56.792Z,72.46
2023-03-18T11:32:56.880Z,64.83
2023-03-18T11:36:56.929Z,45.79
2023-03-18T11:40:57.123Z,79.46
2023-03-18T11:44:57.292Z,92.46
2023-03-18T11:48:57.293Z,157.40
2023-03-18T11:52:57.329Z,192.50
2023-03-18T11:56:57.360Z,199.77
2023-03-18T12:00:57.421Z,217.80
2023-03-18T12:04:57.505Z,226.08
2023-03-18T12:08:58.829Z,226.36
2023-03-18T12:12:57.618Z,238.26
2023-03-18T12:16:57.757Z,248.68
2023-03-18T12:20:57.725Z,250.71
2023-03-18T12:24:57.819Z,250.00
2023-03-18T12:28:57.850Z,248.84
2023-03-18T12:32:57.990Z,245.19
2023-03-18T12:36:57.960Z,249.60
2023-03-18T12:40:58.054Z,249.01
2023-03-18T12:44:58.079Z,247.81
2023-03-18T12:48:58.323Z,248.06
2023-03-18T12:52:58.554Z,249.43
2023-03-18T12:56:58.805Z,248.57
2023-03-18T13:00:59.177Z,247.03
2023-03-18T13:04:59.243Z,249.42
2023-03-18T13:08:59.486Z,246.86
2023-03-18T13:12:59.764Z,244.49
2023-03-18T13:16:59.995Z,245.69
2023-03-18T13:21:00.204Z,246.43
2023-03-18T13:25:00.450Z,249.37
2023-03-18T13:29:00.719Z,249.89
2023-03-18T13:33:00.981Z,248.45
2023-03-18T15:33:08.249Z,249.26
2023-03-18T15:37:08.338Z,248.42
2023-03-18T15:41:08.552Z,248.39
2023-03-18T15:45:08.803Z,246.99
2023-03-18T15:49:09.059Z,248.08
2023-03-18T15:53:09.334Z,245.84
2023-03-18T15:57:09.562Z,247.15
2023-03-18T16:01:09.845Z,248.15
2023-03-18T16:05:10.059Z,246.34
2023-03-18T16:09:10.344Z,246.52
2023-03-18T16:13:10.591Z,247.03
2023-03-18T16:17:10.874Z,246.24
2023-03-18T16:21:11.141Z,247.68
2023-03-18T16:25:11.454Z,248.59
2023-03-18T16:29:11.708Z,247.09
2023-03-18T16:33:12.058Z,248.03
2023-03-18T16:37:12.274Z,248.73
2023-03-18T16:41:12.585Z,247.74
2023-03-18T16:45:12.845Z,247.93
2023-03-18T16:49:13.134Z,247.20
2023-03-18T16:53:13.420Z,245.09
2023-03-18T16:57:13.736Z,246.45
2023-03-18T17:01:14.066Z,249.04
2023-03-18T17:05:14.306Z,247.03
2023-03-18T17:09:14.702Z,249.01
2023-03-18T17:13:14.950Z,245.71
2023-03-18T17:17:15.235Z,247.53
2023-03-18T17:21:15.268Z,247.30
2023-03-18T17:25:15.326Z,238.64
2023-03-18T17:29:15.403Z,238.95
2023-03-18T17:33:15.477Z,237.85
2023-03-18T17:37:15.560Z,236.81
2023-03-18T17:41:15.607Z,240.77
2023-03-18T17:45:15.822Z,239.23
2023-03-18T17:49:15.861Z,241.40
2023-03-18T17:53:15.950Z,239.33
2023-03-18T17:57:16.008Z,240.01
2023-03-18T18:01:16.093Z,238.94
2023-03-18T18:05:16.147Z,242.27
2023-03-18T18:09:16.196Z,239.79
2023-03-18T18:13:16.408Z,241.26
2023-03-18T18:17:16.760Z,240.33
2023-03-18T18:21:17.027Z,237.94
2023-03-18T18:25:17.313Z,237.02
2023-03-18T18:29:17.603Z,238.07
2023-03-18T18:33:17.901Z,237.22
2023-03-18T18:37:17.951Z,237.99
2023-03-18T18:41:18.017Z,237.23
2023-03-18T18:45:18.122Z,235.11
2023-03-18T18:49:18.181Z,238.77
2023-03-18T18:53:18.233Z,235.45
2023-03-18T18:57:18.286Z,237.43
2023-03-18T19:01:18.383Z,236.05
2023-03-18T19:05:18.462Z,237.42
2023-03-18T19:09:18.517Z,236.02
2023-03-18T19:13:18.596Z,234.82
2023-03-18T19:17:18.715Z,233.92
2023-03-18T19:21:18.844Z,235.53
2023-03-18T19:25:18.910Z,233.46
2023-03-18T19:29:18.974Z,235.56
2023-03-18T19:33:19.121Z,237.43
2023-03-18T19:37:19.204Z,232.84
2023-03-18T19:41:19.258Z,236.65
2023-03-18T19:45:19.370Z,234.66
2023-03-18T19:49:19.475Z,237.94
2023-03-18T19:53:19.599Z,235.89
2023-03-18T19:57:19.636Z,233.08
2023-03-18T20:01:19.785Z,234.92
2023-03-18T20:05:19.823Z,236.35
2023-03-18T20:09:20.078Z,236.57
2023-03-18T20:13:20.210Z,236.59
2023-03-18T20:17:20.377Z,235.79
2023-03-18T20:21:20.560Z,237.29
2023-03-18T20:25:20.699Z,232.17
2023-03-18T20:29:20.787Z,231.55
2023-03-18T20:33:20.970Z,233.49
2023-03-18T20:37:21.175Z,230.71
2023-03-18T20:41:21.413Z,231.49
2023-03-18T20:45:21.652Z,229.05
2023-03-18T20:49:21.910Z,226.66
2023-03-18T20:53:21.979Z,227.67
2023-03-18T20:57:22.042Z,226.55
2023-03-18T21:01:22.183Z,225.79
2023-03-18T21:05:22.152Z,224.89
2023-03-18T21:09:22.150Z,225.08
2023-03-18T21:13:22.224Z,224.61
2023-03-18T21:17:22.247Z,225.48
2023-03-18T21:21:22.301Z,224.36
2023-03-18T21:25:22.543Z,222.59
2023-03-18T21:29:22.635Z,221.80
2023-03-18T21:33:22.688Z,220.59
2023-03-18T21:37:22.834Z,219.10
2023-03-18T21:41:22.860Z,220.12
2023-03-18T21:45:22.988Z,221.27
2023-03-18T21:49:23.032Z,219.44
2023-03-18T21:53:23.254Z,220.51
2023-03-18T21:57:23.291Z,218.97
2023-03-18T22:01:23.413Z,216.83
2023-03-18T22:05:23.442Z,216.82
2023-03-18T22:09:23.517Z,217.42
2023-03-18T22:13:23.575Z,216.23
2023-03-18T22:17:23.655Z,214.62
2023-03-18T22:21:23.864Z,214.03
2023-03-18T22:25:23.917Z,211.70
2023-03-18T22:45:24.252Z,210.88
2023-03-18T22:49:24.485Z,208.81
2023-03-18T22:53:24.537Z,208.58
2023-03-18T22:57:24.610Z,209.88
2023-03-18T23:01:24.725Z,206.56
2023-03-18T23:05:24.775Z,205.68
2023-03-18T23:09:24.800Z,205.65
2023-03-18T23:13:24.872Z,205.96
2023-03-18T23:17:25.026Z,204.86
2023-03-18T23:21:25.159Z,204.04
2023-03-18T23:25:25.186Z,203.27
2023-03-18T23:29:25.285Z,203.48
2023-03-18T23:33:25.439Z,199.98
2023-03-18T23:37:25.493Z,200.16
2023-03-18T23:41:25.558Z,199.18
2023-03-18T23:45:25.901Z,197.33
2023-03-18T23:49:25.971Z,197.20
2023-03-18T23:53:26.317Z,195.68
2023-03-18T23:57:26.603Z,199.21
